Aviation Digital Data Service (ADDS)

Output produced by METARs form (1753 UTC 30 September 2014)
found at http://aviationweather.gov/adds/metars/
 
KARA 301723Z 3018/0118 VRB05KT P6SM SCT030 BKN200 
     FM010000 VRB03KT P6SM SCT250 
     TEMPO 0109/0113 4SM BR SCT015 
     FM011400 15006KT P6SM BKN025